Latest Weather Observations for Cairns

IDQ60801

Issued at 4:03 pm EST Monday 17 January 2022 (issued every 10 minutes, with the page automatically refreshed every 10 minutes)

About weather observations | Map of weather stations | Latest weather observations for QLD | Other Formats
Station Details ID: 031011 Name: CAIRNS AERO Lat: -16.87 Lon: 145.75 Height: 2.22 m
Data from the previous 72 hours. | See also: Recent months at Cairns
Date/Time
EST
Temp
°C
App
Temp
°C
Dew
Point
°C
Rel
Hum
%
Delta-T
°C
Wind Press
QNH
hPa
Press
MSL
hPa
Rain since
9am
mm
Dir  Spd
km/h
Gust
km/h
Spd
kts
Gust
kts
17/04:00pm 30.4 34.6 24.8 72 3.9 NNE 11 20 6 11 1005.0 1005.0 0.0
17/03:30pm 30.8 34.7 25.4 73 3.8 N 15 20 8 11 1004.9 1004.9 0.0
17/03:00pm 31.1 33.4 24.5 68 4.6 NNE 20 26 11 14 1004.9 1004.9 0.0
17/02:30pm 31.7 34.9 25.5 69 4.4 N 19 26 10 14 1004.9 1004.9 0.0
17/02:00pm 31.9 34.4 24.7 65 5.1 N 20 24 11 13 1005.2 1005.2 0.0
17/01:30pm 31.3 34.8 25.4 71 4.2 N 17 26 9 14 1005.9 1005.9 0.0
17/01:00pm 31.3 35.7 26.3 75 3.6 N 15 22 8 12 1006.4 1006.4 0.0
17/12:30pm 31.1 35.3 25.4 71 4.0 N 13 20 7 11 1006.8 1006.8 0.0
17/12:00pm 31.1 34.5 24.7 68 4.5 NNE 15 20 8 11 1007.3 1007.3 0.0
17/11:30am 31.1 35.7 25.9 74 3.7 NNE 13 20 7 11 1007.7 1007.7 0.0
17/11:00am 30.8 35.2 25.6 74 3.7 NNE 13 19 7 10 1007.7 1007.7 0.0
17/10:30am 30.8 35.0 24.7 70 4.3 NNE 11 19 6 10 1008.0 1008.0 0.0
17/10:00am 30.2 34.4 24.8 73 3.8 NNE 11 15 6 8 1008.1 1008.1 0.0
17/09:30am 30.3 35.0 24.0 69 4.4 W 6 9 3 5 1007.9 1007.9 0.0
17/09:00am 29.7 35.2 24.6 74 3.6 SSE 4 6 2 3 1007.9 1007.9 0.0
17/08:30am 28.3 32.9 23.2 74 3.5 WSW 4 7 2 4 1008.1 1008.1 0.0
17/08:00am 28.1 33.0 24.3 80 2.6 WSW 6 9 3 5 1008.0 1008.0 0.0
17/07:30am 26.6 30.8 23.1 81 2.4 WSW 6 9 3 5 1007.9 1007.9 0.0
17/07:00am 26.3 32.1 24.5 90 1.2 SW 2 7 1 4 1007.9 1007.9 0.0
17/06:30am 25.1 29.4 23.3 90 1.2 W 6 7 3 4 1008.0 1008.0 0.0
17/06:00am 24.6 30.3 23.7 95 0.6 CALM 0 4 0 2 1008.1 1008.1 0.0
17/05:48am 24.5 30.1 23.5 94 0.7 CALM 0 4 0 2 1007.3 1007.3 0.0
17/05:30am 24.7 30.4 23.8 95 0.6 CALM 0 2 0 1 1005.3 1005.3 0.0
17/05:00am 25.0 30.1 24.1 95 0.6 W 4 6 2 3 1006.8 1006.8 0.0
17/04:30am 24.6 29.8 23.6 94 0.7 W 2 6 1 3 1006.4 1006.4 0.0
17/04:00am 24.6 29.7 23.4 93 0.8 W 2 4 1 2 1006.2 1006.2 0.0
17/03:30am 25.2 30.8 24.2 94 0.7 W 2 4 1 2 1006.4 1006.4 0.0
17/03:00am 25.3 31.2 24.1 93 0.8 CALM 0 0 0 0 1006.3 1006.3 0.0
17/02:30am 25.3 30.7 23.9 92 1.0 W 2 6 1 3 1006.4 1006.4 0.0
17/02:00am 25.7 31.8 24.5 93 0.8 CALM 0 0 0 0 1006.8 1006.8 0.0
17/01:30am 26.0 32.1 24.4 91 1.1 CALM 0 0 0 0 1007.0 1007.0 0.0
17/01:00am 26.6 32.7 24.4 88 1.5 CALM 0 0 0 0 1007.2 1007.2 0.0
17/12:30am 27.3 32.2 24.4 84 2.0 WNW 6 7 3 4 1007.4 1007.4 0.0
17/12:13am 27.4 32.8 24.5 84 2.0 WNW 4 7 2 4 1007.5 1007.5 0.0
17/12:00am 27.4 32.8 24.5 84 2.0 W 4 6 2 3 1007.7 1007.7 0.0
 
Date/Time
EST
Temp
°C
App
Temp
°C
Dew
Point
°C
Rel
Hum
%
Delta-T
°C
Wind Press
QNH
hPa
Press
MSL
hPa
Rain since
9am
mm
Dir  Spd
km/h
Gust
km/h
Spd
kts
Gust
kts
16/11:51pm 27.6 32.9 24.4 83 2.2 WNW 4 6 2 3 1007.9 1007.9 0.0
16/11:30pm 27.5 32.8 24.4 83 2.1 WNW 4 7 2 4 1007.8 1007.8 0.0
16/11:05pm 27.9 32.7 24.1 80 2.6 W 6 7 3 4 1008.5 1008.5 0.0
16/11:00pm 28.0 32.8 24.2 80 2.6 W 6 7 3 4 1008.3 1008.3 0.0
16/10:30pm 28.0 32.9 24.4 81 2.5 W 6 7 3 4 1007.5 1007.5 0.0
16/10:23pm 28.1 33.1 24.5 81 2.5 W 6 9 3 5 1006.5 1006.5 0.0
16/10:20pm 28.1 33.1 24.5 81 2.5 W 6 9 3 5 1007.1 1007.1 0.0
16/10:00pm 28.1 33.1 24.5 81 2.5 W 6 9 3 5 1009.2 1009.2 0.0
16/09:30pm 28.2 33.1 24.4 80 2.6 W 6 7 3 4 1008.2 1008.2 0.0
16/09:00pm 28.2 33.3 24.6 81 2.5 WNW 6 7 3 4 1007.8 1007.8 0.0
16/08:30pm 28.4 33.3 24.4 79 2.8 NNW 6 9 3 5 1007.2 1007.2 0.0
16/08:00pm 28.5 33.5 24.5 79 2.8 NNW 6 9 3 5 1007.2 1007.2 0.0
16/07:30pm 28.4 33.3 24.4 79 2.8 NNW 6 7 3 4 1006.8 1006.8 0.0
16/07:00pm 28.4 33.3 24.4 79 2.8 NNW 6 11 3 6 1006.6 1006.6 0.0
16/06:30pm 28.4 32.7 24.2 78 2.9 N 9 15 5 8 1006.0 1006.0 0.0
16/06:00pm 28.8 33.2 24.4 77 3.1 N 9 15 5 8 1006.2 1006.2 0.0
16/05:30pm 29.0 32.9 24.3 76 3.3 N 11 15 6 8 1005.9 1005.9 0.0
16/05:00pm 29.4 33.7 24.3 74 3.6 N 9 15 5 8 1005.4 1005.4 0.0
16/04:30pm 29.7 33.8 24.6 74 3.6 N 11 20 6 11 1005.3 1005.3 0.0
16/04:00pm 29.9 34.3 24.5 73 3.8 NNE 9 15 5 8 1005.4 1005.4 0.0
16/03:30pm 29.5 34.0 24.6 75 3.4 NNE 9 13 5 7 1005.7 1005.7 0.0
16/03:00pm 29.7 33.3 24.3 73 3.8 NNE 13 20 7 11 1005.7 1005.7 0.0
16/02:30pm 31.1 34.7 25.0 70 4.3 N 15 22 8 12 1006.2 1006.2 0.0
16/02:00pm 31.2 35.7 25.8 73 3.8 NNE 13 22 7 12 1006.5 1006.5 0.0
16/01:30pm 31.1 34.7 25.0 70 4.3 N 15 24 8 13 1007.1 1007.1 0.0
16/01:00pm 31.5 35.8 26.1 73 3.9 NNE 15 30 8 16 1007.4 1007.4 0.0
16/12:30pm 31.1 34.5 25.2 71 4.2 NNE 17 20 9 11 1007.7 1007.7 0.0
16/12:00pm 30.9 34.1 24.3 68 4.6 N 15 22 8 12 1007.9 1007.9 0.0
16/11:30am 30.7 33.0 23.4 65 5.0 N 17 24 9 13 1008.2 1008.2 0.0
16/11:00am 31.1 33.4 23.5 64 5.3 N 17 22 9 12 1008.5 1008.5 0.0
16/10:30am 31.0 33.4 23.6 64 5.1 N 17 24 9 13 1008.5 1008.5 0.0
16/10:00am 31.0 33.4 23.6 64 5.1 N 17 22 9 12 1008.7 1008.7 0.0
16/09:30am 30.3 33.4 23.5 67 4.7 NNE 13 20 7 11 1008.9 1008.9 0.0
16/09:00am 30.1 35.1 24.5 72 3.9 WNW 6 11 3 6 1009.0 1009.0 0.0
16/08:30am 29.7 34.9 23.6 69 4.2 NW 2 7 1 4 1009.0 1009.0 0.0
16/08:00am 28.8 34.0 23.5 73 3.6 ESE 2 4 1 2 1009.1 1009.1 0.0
16/07:30am 27.4 32.4 23.2 78 2.9 E 2 7 1 4 1009.0 1009.0 0.0
16/07:00am 25.9 30.5 23.2 85 1.8 SE 4 6 2 3 1008.8 1008.8 0.0
16/06:30am 25.1 30.2 23.3 90 1.2 SE 2 4 1 2 1008.5 1008.5 0.0
16/06:00am 24.4 29.8 23.2 93 0.8 CALM 0 2 0 1 1008.3 1008.3 0.0
16/05:30am 24.1 28.8 22.7 92 0.9 WNW 2 4 1 2 1008.1 1008.1 0.0
16/05:00am 24.1 29.3 22.9 93 0.8 CALM 0 0 0 0 1007.7 1007.7 0.0
16/04:30am 24.1 29.3 22.9 93 0.8 CALM 0 0 0 0 1007.4 1007.4 0.0
16/04:00am 24.3 29.5 22.9 92 0.9 CALM 0 0 0 0 1007.2 1007.2 0.0
16/03:30am 24.4 29.7 23.0 92 0.9 CALM 0 0 0 0 1007.2 1007.2 0.0
16/03:00am 24.5 29.3 22.9 91 1.1 SE 2 4 1 2 1007.3 1007.3 0.0
16/02:30am 24.5 29.3 22.9 91 1.1 SSW 2 4 1 2 1007.3 1007.3 0.0
16/02:00am 24.8 30.1 23.0 90 1.2 CALM 0 0 0 0 1007.2 1007.2 0.0
16/01:30am 25.1 30.5 23.2 89 1.3 CALM 0 0 0 0 1007.0 1007.0 0.0
16/01:00am 25.3 29.7 22.8 86 1.7 W 4 6 2 3 1007.0 1007.0 0.0
16/12:30am 25.4 30.7 23.1 87 1.6 CALM 0 0 0 0 1007.5 1007.5 0.0
16/12:00am 25.7 31.0 23.0 85 1.8 CALM 0 2 0 1 1008.0 1008.0 0.0
 
Date/Time
EST
Temp
°C
App
Temp
°C
Dew
Point
°C
Rel
Hum
%
Delta-T
°C
Wind Press
QNH
hPa
Press
MSL
hPa
Rain since
9am
mm
Dir  Spd
km/h
Gust
km/h
Spd
kts
Gust
kts
15/11:30pm 25.7 31.0 23.0 85 1.8 CALM 0 4 0 2 1008.4 1008.4 0.0
15/11:00pm 25.9 30.1 23.2 85 1.8 W 6 7 3 4 1008.4 1008.4 0.0
15/10:30pm 25.7 31.1 23.2 86 1.7 CALM 0 4 0 2 1008.5 1008.5 0.0
15/10:00pm 25.9 30.5 23.2 85 1.8 W 4 4 2 2 1008.5 1008.5 0.0
15/09:30pm 26.4 30.7 23.3 83 2.1 W 6 6 3 3 1008.2 1008.2 0.0
15/09:00pm 26.5 31.0 23.0 81 2.4 WNW 4 6 2 3 1007.5 1007.5 0.0
15/08:30pm 27.2 31.5 22.6 76 3.1 W 4 6 2 3 1007.9 1007.9 0.0
15/08:00pm 27.0 31.3 22.6 77 3.0 WNW 4 6 2 3 1008.1 1008.1 0.0
15/07:30pm 27.3 31.8 22.3 74 3.4 NNW 2 6 1 3 1007.7 1007.7 0.0
15/07:00pm 27.3 31.4 22.3 74 3.4 NNW 4 6 2 3 1006.7 1006.7 0.0
15/06:30pm 28.1 31.6 21.9 69 4.2 N 6 9 3 5 1005.8 1005.8 0.0
15/06:14pm 28.5 32.1 22.3 69 4.2 N 7 13 4 7 1005.4 1005.4 0.0
15/06:00pm 29.3 32.9 22.3 66 4.7 N 7 11 4 6 1007.8 1007.8 0.0
15/05:30pm 29.9 33.5 22.3 63 5.2 NNE 7 13 4 7 1005.8 1005.8 0.0
15/05:00pm 30.1 33.8 23.3 67 4.7 N 9 13 5 7 1005.7 1005.7 0.0
15/04:30pm 29.2 32.7 22.9 69 4.3 NNE 9 17 5 9 1005.7 1005.7 0.0
15/04:00pm 29.6 33.4 23.5 69 4.2 N 9 15 5 8 1005.9 1005.9 0.0
15/03:30pm 29.4 32.6 22.4 66 4.7 NNE 9 17 5 9 1006.4 1006.4 0.0
15/03:00pm 30.6 33.6 23.3 65 5.0 NE 13 22 7 12 1006.5 1006.5 0.0
15/02:30pm 30.9 34.2 24.5 68 4.5 NE 15 19 8 10 1006.8 1006.8 0.0
15/02:00pm 30.6 33.7 23.5 66 4.9 NNE 13 22 7 12 1007.0 1007.0 0.0
15/01:30pm 31.1 34.8 24.5 68 4.6 NNE 13 22 7 12 1007.2 1007.2 0.0
15/01:00pm 30.3 33.4 24.2 70 4.3 NE 15 19 8 10 1007.4 1007.4 0.0
15/12:30pm 30.6 34.6 25.0 72 3.9 NNE 13 19 7 10 1007.5 1007.5 0.0
15/12:00pm 30.3 33.8 24.2 70 4.3 N 13 19 7 10 1007.8 1007.8 0.0
15/11:30am 30.4 33.9 23.6 67 4.7 NNE 11 17 6 9 1007.9 1007.9 0.0
15/11:00am 30.0 33.5 22.2 63 5.3 NNE 7 13 4 7 1008.4 1008.4 0.0
15/10:30am 30.0 31.6 21.4 60 5.8 NE 15 19 8 10 1008.4 1008.4 0.0
15/10:00am 30.9 35.0 23.0 62 5.4 ESE 6 11 3 6 1008.6 1008.6 0.0
15/09:30am 30.2 33.6 21.6 60 5.8 SE 6 9 3 5 1008.9 1008.9 0.0
15/09:00am 29.9 34.0 22.3 63 5.2 ENE 4 4 2 2 1009.1 1009.1 0.0
15/08:30am 28.4 32.7 21.9 68 4.4 E 2 6 1 3 1009.2 1009.2 0.0
15/08:00am 27.0 30.5 22.2 75 3.2 SE 7 13 4 7 1009.3 1009.3 0.0
15/07:30am 26.1 30.8 22.6 81 2.4 NE 2 6 1 3 1009.0 1009.0 0.0
15/07:00am 25.5 30.8 23.0 86 1.7 CALM 0 2 0 1 1008.9 1008.9 0.0
15/06:30am 24.0 28.6 22.4 91 1.1 S 2 6 1 3 1008.6 1008.6 0.0
15/06:00am 23.8 28.9 22.6 93 0.8 CALM 0 0 0 0 1008.2 1008.2 0.0
15/05:30am 23.6 28.7 22.6 94 0.7 CALM 0 0 0 0 1007.8 1007.8 0.0
15/05:00am 23.6 28.7 22.6 94 0.7 CALM 0 0 0 0 1007.5 1007.5 0.0
15/04:30am 24.0 28.2 22.4 91 1.1 WSW 4 4 2 2 1007.1 1007.1 0.0
15/04:00am 23.8 28.6 22.8 94 0.7 SSE 2 9 1 5 1007.0 1007.0 0.0
15/03:30am 23.7 28.3 22.5 93 0.8 W 2 4 1 2 1007.2 1007.2 0.0
15/03:00am 24.0 28.8 22.8 93 0.8 WSW 2 4 1 2 1007.1 1007.1 0.0
15/02:30am 24.1 29.3 22.9 93 0.8 CALM 0 0 0 0 1007.2 1007.2 0.0
15/02:00am 24.5 29.7 22.9 91 1.1 CALM 0 0 0 0 1007.2 1007.2 0.0
15/01:30am 25.0 30.4 23.2 90 1.2 CALM 0 0 0 0 1007.6 1007.6 0.0
15/01:00am 25.1 30.5 23.3 90 1.2 CALM 0 0 0 0 1007.9 1007.9 0.0
15/12:30am 24.9 29.5 23.1 90 1.2 W 4 6 2 3 1008.5 1008.5 0.0
15/12:00am 24.8 29.7 23.0 90 1.2 W 2 6 1 3 1008.6 1008.6 0.0
 
Date/Time
EST
Temp
°C
App
Temp
°C
Dew
Point
°C
Rel
Hum
%
Delta-T
°C
Wind Press
QNH
hPa
Press
MSL
hPa
Rain since
9am
mm
Dir  Spd
km/h
Gust
km/h
Spd
kts
Gust
kts
14/11:30pm 24.7 29.9 22.9 90 1.2 CALM 0 4 0 2 1008.7 1008.7 0.0
14/11:00pm 25.0 30.2 22.9 88 1.4 CALM 0 0 0 0 1008.9 1008.9 0.0
14/10:30pm 25.1 30.3 22.8 87 1.6 CALM 0 0 0 0 1009.1 1009.1 0.0
14/10:00pm 25.5 30.7 22.8 85 1.8 CALM 0 0 0 0 1008.7 1008.7 0.0
14/09:30pm 25.7 30.6 22.4 82 2.2 CALM 0 0 0 0 1009.0 1009.0 0.0
14/09:00pm 26.1 30.8 22.6 81 2.4 WSW 2 2 1 1 1008.9 1008.9 0.0
14/08:30pm 26.7 31.7 22.5 78 2.8 CALM 0 0 0 0 1008.5 1008.5 0.0
14/08:00pm 27.7 32.9 22.9 75 3.3 CALM 0 4 0 2 1008.5 1008.5 0.0
14/07:30pm 27.9 32.5 22.4 72 3.7 SE 2 6 1 3 1008.0 1008.0 0.0
14/07:00pm 28.4 30.8 22.2 69 4.2 ESE 13 17 7 9 1007.7 1007.7 0.0
14/06:30pm 28.5 31.0 22.5 70 4.1 ESE 13 17 7 9 1007.2 1007.2 0.0
14/06:00pm 29.1 31.6 23.1 70 4.1 ESE 15 20 8 11 1007.1 1007.1 0.0
14/05:30pm 29.4 31.7 23.4 70 4.1 E 17 22 9 12 1006.8 1006.8 0.0
14/05:00pm 29.8 31.4 22.8 66 4.8 E 19 24 10 13 1006.7 1006.7 0.0
14/04:30pm 30.0 32.5 23.2 67 4.7 ENE 15 22 8 12 1006.3 1006.3 0.0

Other formats

Comma delimited format used in spreadsheet applications
http://www.bom.gov.au/fwo/IDQ60801/IDQ60801.94287.axf

JavaScript Object Notation format (JSON) in row-major order
http://www.bom.gov.au/fwo/IDQ60801/IDQ60801.94287.json

Data quality

Most of these data are generated automatically and are frequently updated. Quality checks on data are not normally performed. It is possible for incorrect values to appear. Refer to information at About Latest Weather Observations and please check the disclaimer before using these data.